Terminal Aerodrome Forecast
Issued by NWS Charleston, WV

Home | Current Version | Previous Version | Text Only | Print | Product List | Glossary On
Versions: 1 2 3 4 5 6 7 8 9 10 11 12 13 14 15 16 17 18 19 20
000
FTUS41 KRLX 030520
TAFBKW
TAF
KBKW 030520Z 0306/0406 00000KT P6SM SCT250
     FM030900 00000KT P6SM FEW050
     FM031500 27006KT P6SM FEW050
     FM040200 24007KT P6SM BKN045
     FM040500 24007KT P6SM VCTS BKN035CB=

USA.gov is the U.S. government's official web portal to all federal, state and local government web resources and services.